Tempos de volta de F4 DRIVERS KART DRIVERS - F4 DRIVERS - PROVA 10 - 21:30
KARTODROMO INTERNACIONAL GRANJA VIANA a funcionar KGV RACE TRACKS - CIRCUITO 105
Tempos de volta de F4 DRIVERS - KART DRIVERS - F4 DRIVERS - PROVA 10 - 21:30


Hora do dia Volta Volta do Líder Volta Tm Velocidade
144 - DGEISON DE LUCCA - F4 DRIVERS
21:46:52.074 1 1 39.813 66,009
21:47:28.890 2 2 36.816 71,382
21:48:05.800 3 3 36.910 71,200
21:48:42.526 4 4 36.726 71,557
21:49:18.928 5 5 36.402 72,194
21:49:55.405 6 6 36.477 72,045
21:50:31.820 7 7 36.415 72,168
21:51:08.292 8 8 36.472 72,055
21:51:44.679 9 9 36.387 72,224
21:52:20.966 10 10 36.287 72,423
21:52:57.395 11 11 36.429 72,140
21:53:33.953 12 12 36.558 71,886
21:54:10.382 13 13 36.429 72,140
21:54:46.753 14 14 36.371 72,255
21:55:23.307 15 15 36.554 71,894
21:55:59.814 16 16 36.507 71,986
21:56:36.206 17 17 36.392 72,214
21:57:12.618 18 18 36.412 72,174
21:57:49.153 19 19 36.535 71,931
21:58:25.689 20 20 36.536 71,929
21:59:02.108 21 21 36.419 72,160
21:59:39.540 22 22 37.432 70,207
22:00:16.161 23 23 36.621 71,762
22:00:53.042 24 24 36.881 71,256
22:01:29.776 25 25 36.734 71,541
22:02:06.410 26 26 36.634 71,737
22:02:43.022 27 27 36.612 71,780
043 - RENAN CORDEIRO - F4 DRIVERS
21:46:52.256 1 1 39.994 65,710
21:47:29.286 2 2 37.030 70,969
21:48:06.013 3 3 36.727 71,555
21:48:42.708 4 4 36.695 71,617
21:49:19.104 5 5 36.396 72,206
21:49:55.692 6 6 36.588 71,827
21:50:32.178 7 7 36.486 72,028
21:51:08.579 8 8 36.401 72,196
21:51:44.955 9 9 36.376 72,245
21:52:21.297 10 10 36.342 72,313
21:52:57.693 11 11 36.396 72,206
21:53:34.154 12 12 36.461 72,077
21:54:10.671 13 13 36.517 71,966
21:54:47.070 14 14 36.399 72,200
21:55:23.571 15 15 36.501 71,998
21:56:00.052 16 16 36.481 72,037
21:56:36.602 17 17 36.550 71,902
21:57:13.135 18 18 36.533 71,935
21:57:49.684 19 19 36.549 71,903
21:58:26.254 20 20 36.570 71,862
21:59:02.999 21 21 36.745 71,520
21:59:39.916 22 22 36.917 71,187
22:00:16.668 23 23 36.752 71,506
22:00:53.482 24 24 36.814 71,386
22:01:30.259 25 25 36.777 71,458
22:02:06.935 26 26 36.676 71,654
22:02:43.786 27 27 36.851 71,314
153 - MARCOS BARONE - F4 DRIVERS
21:46:53.168 1 1 39.778 66,067
21:47:30.001 2 2 36.833 71,349
21:48:06.733 3 3 36.732 71,545
21:48:43.390 4 4 36.657 71,692
21:49:19.958 5 5 36.568 71,866
21:49:56.525 6 6 36.567 71,868
21:50:33.374 7 7 36.849 71,318
21:51:09.976 8 8 36.602 71,799
21:51:46.576 9 9 36.600 71,803
21:52:23.020 10 10 36.444 72,111
21:52:59.463 11 11 36.443 72,113
21:53:35.887 12 12 36.424 72,150
21:54:12.332 13 13 36.445 72,109
21:54:48.761 14 14 36.429 72,140
21:55:25.335 15 15 36.574 71,854
21:56:01.843 16 16 36.508 71,984
21:56:38.389 17 17 36.546 71,909
21:57:15.033 18 18 36.644 71,717
21:57:51.563 19 19 36.530 71,941
21:58:28.222 20 20 36.659 71,688
21:59:04.819 21 21 36.597 71,809
21:59:41.389 22 22 36.570 71,862
22:00:18.329 23 23 36.940 71,142
22:00:55.591 24 24 37.262 70,528
22:01:32.872 25 25 37.281 70,492
22:02:09.800 26 26 36.928 71,166
22:02:47.191 27 27 37.391 70,284
014 - ANTONIO LOPES - F4 DRIVERS
21:46:52.531 1 1 39.711 66,178
21:47:29.542 2 2 37.011 71,006
21:48:06.404 3 3 36.862 71,293
21:48:43.020 4 4 36.616 71,772
21:49:19.506 5 5 36.486 72,028
21:49:56.026 6 6 36.520 71,961
21:50:32.614 7 7 36.588 71,827
21:51:09.202 8 8 36.588 71,827
21:51:45.707 9 9 36.505 71,990
21:52:22.051 10 10 36.344 72,309
21:52:58.487 11 11 36.436 72,126
21:53:34.965 12 12 36.478 72,043
21:54:11.471 13 13 36.506 71,988
21:54:48.040 14 14 36.569 71,864
21:55:24.603 15 15 36.563 71,876
21:56:01.082 16 16 36.479 72,041
21:56:37.669 17 17 36.587 71,829
21:57:14.367 18 18 36.698 71,612
21:57:50.952 19 19 36.585 71,833
21:58:27.667 20 20 36.715 71,578
21:59:04.262 21 21 36.595 71,813
21:59:41.313 22 22 37.051 70,929
22:00:18.476 23 23 37.163 70,715
22:00:55.761 24 24 37.285 70,484
22:01:33.136 25 25 37.375 70,314
22:02:09.875 26 26 36.739 71,532
22:02:47.395 27 27 37.520 70,043
031 - AUGUSTO CHAGAS - F4 DRIVERS
21:46:53.404 1 1 40.172 65,419
21:47:30.598 2 2 37.194 70,657
21:48:07.497 3 3 36.899 71,221
21:48:44.293 4 4 36.796 71,421
21:49:21.278 5 5 36.985 71,056
21:49:57.996 6 6 36.718 71,573
21:50:34.942 7 7 36.946 71,131
21:51:11.714 8 8 36.772 71,467
21:51:48.444 9 9 36.730 71,549
21:52:25.326 10 10 36.882 71,254
21:53:02.296 11 11 36.970 71,085
21:53:39.310 12 12 37.014 71,000
21:54:16.377 13 13 37.067 70,899
21:54:53.461 14 14 37.084 70,866
21:55:30.465 15 15 37.004 71,019
21:56:07.634 16 16 37.169 70,704
21:56:44.499 17 17 36.865 71,287
21:57:21.723 18 18 37.224 70,600
21:57:59.143 19 19 37.420 70,230
21:58:36.350 20 20 37.207 70,632
21:59:13.447 21 21 37.097 70,841
21:59:50.546 22 22 37.099 70,837
22:00:27.582 23 23 37.036 70,958
22:01:05.044 24 24 37.462 70,151
22:01:42.227 25 25 37.183 70,677
22:02:19.456 26 26 37.229 70,590
22:02:56.618 27 27 37.162 70,717
242 - ALEXANDRE ALBINO - F4 DRIVERS
21:46:54.107 1 1 39.941 65,797
21:47:31.561 2 2 37.454 70,166
21:48:08.877 3 3 37.316 70,426
21:48:46.294 4 4 37.417 70,235
21:49:23.433 5 5 37.139 70,761
21:50:00.827 6 6 37.394 70,279
21:50:38.041 7 7 37.214 70,619
21:51:15.079 8 8 37.038 70,954
21:51:52.219 9 9 37.140 70,759
21:52:29.464 10 10 37.245 70,560
21:53:06.515 11 11 37.051 70,929
21:53:43.651 12 12 37.136 70,767
21:54:20.658 13 13 37.007 71,014
21:54:57.713 14 14 37.055 70,922
21:55:34.675 15 15 36.962 71,100
21:56:11.669 16 16 36.994 71,039
21:56:48.686 17 17 37.017 70,994
21:57:25.678 18 18 36.992 71,042
21:58:02.856 19 19 37.178 70,687
21:58:39.883 20 20 37.027 70,975
21:59:16.901 21 21 37.018 70,992
21:59:54.021 22 22 37.120 70,797
22:00:31.277 23 23 37.256 70,539
22:01:08.579 24 24 37.302 70,452
22:01:45.856 25 25 37.277 70,499
22:02:22.928 26 26 37.072 70,889
22:03:00.089 27 27 37.161 70,719
023 - HEITOR DE NICOLA - F4 DRIVERS
21:46:55.449 1 1 40.941 64,190
21:47:34.451 2 2 39.002 67,381
21:48:12.818 3 3 38.367 68,496
21:48:50.978 4 4 38.160 68,868
21:49:29.001 5 5 38.023 69,116
21:50:07.547 6 6 38.546 68,178
21:50:45.372 7 7 37.825 69,478
21:51:23.244 8 8 37.872 69,392
21:52:01.371 9 9 38.127 68,928
21:52:39.502 10 10 38.131 68,920
21:53:17.489 11 11 37.987 69,182
21:53:55.756 12 12 38.267 68,675
21:54:33.650 13 13 37.894 69,351
21:55:11.839 14 14 38.189 68,816
21:55:49.740 15 15 37.901 69,339
21:56:28.086 16 16 38.346 68,534
21:57:06.578 17 17 38.492 68,274
21:57:44.561 18 18 37.983 69,189
21:58:23.024 19 19 38.463 68,325
21:59:01.313 20 20 38.289 68,636
21:59:41.556 21 22 40.243 65,303
22:00:20.052 22 23 38.496 68,267
22:00:59.203 23 24 39.151 67,125
22:01:37.740 24 25 38.537 68,194
22:02:16.324 25 26 38.584 68,111
22:02:54.637 26 27 38.313 68,593
099 - ANDERSON GADENA - F4 DRIVERS
21:46:55.520 1 1 40.737 64,511
21:47:32.983 2 2 37.463 70,149
21:48:09.748 3 3 36.765 71,481
21:48:46.494 4 4 36.746 71,518
21:49:23.553 5 5 37.059 70,914
044 - MIGUEL VARCA - F4 DRIVERS
21:47:09.289 1 1 51.647 50,884
Gerada em 14/09/2021 22:41